sensor_id;sensor_type;location;lat;lon;timestamp;P1;durP1;ratioP1;P2;durP2;ratioP2
78324;SDS011;67584;51.400;6.692;2023-06-22T00:00:48;6.72;;;6.10;;
78324;SDS011;67584;51.400;6.692;2023-06-22T00:03:14;7.63;;;5.55;;
78324;SDS011;67584;51.400;6.692;2023-06-22T00:05:40;8.13;;;6.43;;
78324;SDS011;67584;51.400;6.692;2023-06-22T00:08:06;10.57;;;6.88;;
78324;SDS011;67584;51.400;6.692;2023-06-22T00:10:32;9.75;;;7.22;;
78324;SDS011;67584;51.400;6.692;2023-06-22T00:12:57;10.45;;;7.55;;
78324;SDS011;67584;51.400;6.692;2023-06-22T00:15:23;7.00;;;6.22;;
78324;SDS011;67584;51.400;6.692;2023-06-22T00:17:49;9.40;;;6.65;;
78324;SDS011;67584;51.400;6.692;2023-06-22T00:20:16;8.02;;;6.32;;
78324;SDS011;67584;51.400;6.692;2023-06-22T00:22:43;8.05;;;6.57;;
78324;SDS011;67584;51.400;6.692;2023-06-22T00:25:09;6.13;;;5.53;;
78324;SDS011;67584;51.400;6.692;2023-06-22T00:27:35;9.65;;;7.55;;
78324;SDS011;67584;51.400;6.692;2023-06-22T00:30:01;10.35;;;7.15;;
78324;SDS011;67584;51.400;6.692;2023-06-22T00:32:28;9.27;;;6.65;;
78324;SDS011;67584;51.400;6.692;2023-06-22T00:34:54;9.45;;;6.68;;
78324;SDS011;67584;51.400;6.692;2023-06-22T00:37:19;10.73;;;6.38;;
78324;SDS011;67584;51.400;6.692;2023-06-22T00:39:51;10.63;;;7.82;;
78324;SDS011;67584;51.400;6.692;2023-06-22T00:42:18;10.70;;;7.72;;
78324;SDS011;67584;51.400;6.692;2023-06-22T00:44:45;9.02;;;7.57;;
78324;SDS011;67584;51.400;6.692;2023-06-22T00:47:11;10.57;;;7.85;;
78324;SDS011;67584;51.400;6.692;2023-06-22T00:49:41;9.88;;;7.72;;
78324;SDS011;67584;51.400;6.692;2023-06-22T00:52:07;9.60;;;7.75;;
78324;SDS011;67584;51.400;6.692;2023-06-22T00:54:38;9.90;;;8.65;;
78324;SDS011;67584;51.400;6.692;2023-06-22T00:57:05;8.88;;;7.68;;
78324;SDS011;67584;51.400;6.692;2023-06-22T00:59:36;11.20;;;7.47;;
78324;SDS011;67584;51.400;6.692;2023-06-22T01:02:02;10.27;;;8.13;;
78324;SDS011;67584;51.400;6.692;2023-06-22T01:04:34;9.80;;;7.38;;
78324;SDS011;67584;51.400;6.692;2023-06-22T01:09:52;9.25;;;7.32;;
78324;SDS011;67584;51.400;6.692;2023-06-22T01:18:28;9.27;;;7.20;;
78324;SDS011;67584;51.400;6.692;2023-06-22T01:20:56;8.98;;;6.60;;
78324;SDS011;67584;51.400;6.692;2023-06-22T01:26:16;10.73;;;6.95;;
78324;SDS011;67584;51.400;6.692;2023-06-22T01:28:53;9.25;;;6.93;;
78324;SDS011;67584;51.400;6.692;2023-06-22T01:31:21;11.48;;;7.63;;
78324;SDS011;67584;51.400;6.692;2023-06-22T01:33:51;9.38;;;7.95;;
78324;SDS011;67584;51.400;6.692;2023-06-22T01:36:21;8.20;;;7.05;;
78324;SDS011;67584;51.400;6.692;2023-06-22T01:38:48;9.65;;;7.28;;
78324;SDS011;67584;51.400;6.692;2023-06-22T01:41:15;9.05;;;7.45;;
78324;SDS011;67584;51.400;6.692;2023-06-22T01:43:42;10.85;;;8.88;;
78324;SDS011;67584;51.400;6.692;2023-06-22T01:46:09;10.45;;;8.10;;
78324;SDS011;67584;51.400;6.692;2023-06-22T01:48:37;12.38;;;7.75;;
78324;SDS011;67584;51.400;6.692;2023-06-22T01:51:04;10.00;;;8.43;;
78324;SDS011;67584;51.400;6.692;2023-06-22T01:53:30;10.35;;;7.88;;
78324;SDS011;67584;51.400;6.692;2023-06-22T01:55:56;8.68;;;7.70;;
78324;SDS011;67584;51.400;6.692;2023-06-22T01:58:23;13.18;;;7.43;;
78324;SDS011;67584;51.400;6.692;2023-06-22T02:03:34;10.52;;;8.68;;
78324;SDS011;67584;51.400;6.692;2023-06-22T02:06:11;7.68;;;6.72;;
78324;SDS011;67584;51.400;6.692;2023-06-22T02:08:55;6.97;;;5.93;;
78324;SDS011;67584;51.400;6.692;2023-06-22T02:11:24;11.80;;;8.50;;
78324;SDS011;67584;51.400;6.692;2023-06-22T02:13:52;11.63;;;7.97;;
78324;SDS011;67584;51.400;6.692;2023-06-22T02:16:18;9.30;;;7.85;;
78324;SDS011;67584;51.400;6.692;2023-06-22T02:18:48;10.23;;;8.48;;
78324;SDS011;67584;51.400;6.692;2023-06-22T02:21:17;10.10;;;7.97;;
78324;SDS011;67584;51.400;6.692;2023-06-22T02:23:46;11.63;;;9.00;;
78324;SDS011;67584;51.400;6.692;2023-06-22T02:26:12;11.50;;;8.73;;
78324;SDS011;67584;51.400;6.692;2023-06-22T02:28:38;11.30;;;9.93;;
78324;SDS011;67584;51.400;6.692;2023-06-22T02:31:04;12.30;;;9.07;;
78324;SDS011;67584;51.400;6.692;2023-06-22T02:33:30;9.73;;;8.57;;
78324;SDS011;67584;51.400;6.692;2023-06-22T02:35:55;12.23;;;8.60;;
78324;SDS011;67584;51.400;6.692;2023-06-22T02:38:21;11.00;;;8.95;;
78324;SDS011;67584;51.400;6.692;2023-06-22T02:40:50;12.38;;;9.27;;
78324;SDS011;67584;51.400;6.692;2023-06-22T02:43:16;11.88;;;9.02;;
78324;SDS011;67584;51.400;6.692;2023-06-22T02:45:43;14.73;;;10.15;;
78324;SDS011;67584;51.400;6.692;2023-06-22T02:48:10;13.07;;;9.75;;
78324;SDS011;67584;51.400;6.692;2023-06-22T02:50:35;12.77;;;9.45;;
78324;SDS011;67584;51.400;6.692;2023-06-22T02:53:02;10.55;;;9.18;;
78324;SDS011;67584;51.400;6.692;2023-06-22T02:55:32;11.02;;;8.95;;
78324;SDS011;67584;51.400;6.692;2023-06-22T02:57:58;13.55;;;9.73;;
78324;SDS011;67584;51.400;6.692;2023-06-22T03:00:26;13.77;;;9.25;;
78324;SDS011;67584;51.400;6.692;2023-06-22T03:02:56;12.68;;;8.75;;
78324;SDS011;67584;51.400;6.692;2023-06-22T03:05:22;10.90;;;8.20;;
78324;SDS011;67584;51.400;6.692;2023-06-22T03:07:48;13.20;;;10.20;;
78324;SDS011;67584;51.400;6.692;2023-06-22T03:10:15;11.65;;;9.60;;
78324;SDS011;67584;51.400;6.692;2023-06-22T03:12:42;9.85;;;8.52;;
78324;SDS011;67584;51.400;6.692;2023-06-22T03:15:09;11.13;;;8.90;;
78324;SDS011;67584;51.400;6.692;2023-06-22T03:20:07;14.00;;;9.63;;
78324;SDS011;67584;51.400;6.692;2023-06-22T03:22:34;13.52;;;10.13;;
78324;SDS011;67584;51.400;6.692;2023-06-22T03:25:01;13.27;;;10.73;;
78324;SDS011;67584;51.400;6.692;2023-06-22T03:27:27;17.92;;;11.00;;
78324;SDS011;67584;51.400;6.692;2023-06-22T03:29:53;12.88;;;10.95;;
78324;SDS011;67584;51.400;6.692;2023-06-22T03:32:18;15.65;;;10.77;;
78324;SDS011;67584;51.400;6.692;2023-06-22T03:34:44;14.32;;;10.85;;
78324;SDS011;67584;51.400;6.692;2023-06-22T03:37:13;11.32;;;9.98;;
78324;SDS011;67584;51.400;6.692;2023-06-22T03:39:40;17.08;;;11.20;;
78324;SDS011;67584;51.400;6.692;2023-06-22T03:42:07;14.57;;;11.55;;
78324;SDS011;67584;51.400;6.692;2023-06-22T03:44:33;14.32;;;11.13;;
78324;SDS011;67584;51.400;6.692;2023-06-22T03:47:01;14.02;;;10.73;;
78324;SDS011;67584;51.400;6.692;2023-06-22T03:49:28;16.35;;;10.23;;
78324;SDS011;67584;51.400;6.692;2023-06-22T03:51:53;12.98;;;11.40;;
78324;SDS011;67584;51.400;6.692;2023-06-22T03:54:19;13.32;;;10.00;;
78324;SDS011;67584;51.400;6.692;2023-06-22T03:56:45;14.80;;;11.70;;
78324;SDS011;67584;51.400;6.692;2023-06-22T03:59:10;13.40;;;9.75;;
78324;SDS011;67584;51.400;6.692;2023-06-22T04:01:36;15.23;;;11.23;;
78324;SDS011;67584;51.400;6.692;2023-06-22T04:04:01;14.50;;;10.93;;
78324;SDS011;67584;51.400;6.692;2023-06-22T04:06:27;13.98;;;10.70;;
78324;SDS011;67584;51.400;6.692;2023-06-22T04:08:53;14.40;;;10.40;;
78324;SDS011;67584;51.400;6.692;2023-06-22T04:11:18;11.18;;;9.43;;
78324;SDS011;67584;51.400;6.692;2023-06-22T04:13:44;12.02;;;10.73;;
78324;SDS011;67584;51.400;6.692;2023-06-22T04:16:10;12.00;;;10.25;;
78324;SDS011;67584;51.400;6.692;2023-06-22T04:18:35;14.50;;;10.80;;
78324;SDS011;67584;51.400;6.692;2023-06-22T04:21:01;12.50;;;10.43;;
78324;SDS011;67584;51.400;6.692;2023-06-22T04:23:27;14.65;;;11.63;;
78324;SDS011;67584;51.400;6.692;2023-06-22T04:25:53;14.05;;;11.45;;
78324;SDS011;67584;51.400;6.692;2023-06-22T04:28:19;11.55;;;9.95;;
78324;SDS011;67584;51.400;6.692;2023-06-22T04:30:44;14.40;;;11.60;;
78324;SDS011;67584;51.400;6.692;2023-06-22T04:33:13;16.67;;;11.05;;
78324;SDS011;67584;51.400;6.692;2023-06-22T04:35:39;15.90;;;11.13;;
78324;SDS011;67584;51.400;6.692;2023-06-22T04:38:06;11.48;;;9.60;;
78324;SDS011;67584;51.400;6.692;2023-06-22T04:40:32;14.20;;;12.43;;
78324;SDS011;67584;51.400;6.692;2023-06-22T04:42:58;10.68;;;7.97;;
78324;SDS011;67584;51.400;6.692;2023-06-22T04:45:27;10.20;;;7.38;;
78324;SDS011;67584;51.400;6.692;2023-06-22T04:47:56;12.15;;;8.88;;
78324;SDS011;67584;51.400;6.692;2023-06-22T04:50:22;10.20;;;6.63;;
78324;SDS011;67584;51.400;6.692;2023-06-22T04:52:48;12.50;;;9.45;;
78324;SDS011;67584;51.400;6.692;2023-06-22T04:55:15;10.07;;;8.55;;
78324;SDS011;67584;51.400;6.692;2023-06-22T04:57:44;9.90;;;8.05;;
78324;SDS011;67584;51.400;6.692;2023-06-22T05:00:14;11.38;;;9.45;;
78324;SDS011;67584;51.400;6.692;2023-06-22T05:02:44;8.45;;;7.53;;
78324;SDS011;67584;51.400;6.692;2023-06-22T05:05:11;12.75;;;10.48;;
78324;SDS011;67584;51.400;6.692;2023-06-22T05:07:44;11.45;;;9.75;;
78324;SDS011;67584;51.400;6.692;2023-06-22T05:10:15;8.27;;;6.40;;
78324;SDS011;67584;51.400;6.692;2023-06-22T05:12:42;9.23;;;7.55;;
78324;SDS011;67584;51.400;6.692;2023-06-22T05:15:08;12.05;;;7.72;;
78324;SDS011;67584;51.400;6.692;2023-06-22T05:17:34;14.02;;;9.23;;
78324;SDS011;67584;51.400;6.692;2023-06-22T05:20:01;10.38;;;7.63;;
78324;SDS011;67584;51.400;6.692;2023-06-22T05:22:27;15.43;;;9.85;;
78324;SDS011;67584;51.400;6.692;2023-06-22T05:24:53;10.70;;;8.50;;
78324;SDS011;67584;51.400;6.692;2023-06-22T05:27:19;16.30;;;10.25;;
78324;SDS011;67584;51.400;6.692;2023-06-22T05:29:45;11.60;;;9.00;;
78324;SDS011;67584;51.400;6.692;2023-06-22T05:32:10;18.02;;;8.65;;
78324;SDS011;67584;51.400;6.692;2023-06-22T05:34:36;14.93;;;8.85;;
78324;SDS011;67584;51.400;6.692;2023-06-22T05:37:02;11.52;;;8.55;;
78324;SDS011;67584;51.400;6.692;2023-06-22T05:39:28;10.27;;;8.15;;
78324;SDS011;67584;51.400;6.692;2023-06-22T05:41:54;11.80;;;8.65;;
78324;SDS011;67584;51.400;6.692;2023-06-22T05:44:20;12.05;;;8.60;;
78324;SDS011;67584;51.400;6.692;2023-06-22T05:46:45;17.30;;;9.80;;
78324;SDS011;67584;51.400;6.692;2023-06-22T05:49:12;14.43;;;9.48;;
78324;SDS011;67584;51.400;6.692;2023-06-22T05:51:38;11.45;;;8.45;;
78324;SDS011;67584;51.400;6.692;2023-06-22T05:54:04;14.77;;;8.32;;
78324;SDS011;67584;51.400;6.692;2023-06-22T05:56:30;15.95;;;10.48;;
78324;SDS011;67584;51.400;6.692;2023-06-22T05:58:56;11.35;;;8.00;;
78324;SDS011;67584;51.400;6.692;2023-06-22T06:01:21;13.38;;;8.10;;
78324;SDS011;67584;51.400;6.692;2023-06-22T06:03:47;13.82;;;8.40;;
78324;SDS011;67584;51.400;6.692;2023-06-22T06:06:15;14.52;;;9.90;;
78324;SDS011;67584;51.400;6.692;2023-06-22T06:08:41;12.35;;;9.60;;
78324;SDS011;67584;51.400;6.692;2023-06-22T06:11:07;13.65;;;9.70;;
78324;SDS011;67584;51.400;6.692;2023-06-22T06:13:33;12.45;;;9.27;;
78324;SDS011;67584;51.400;6.692;2023-06-22T06:15:58;11.73;;;8.32;;
78324;SDS011;67584;51.400;6.692;2023-06-22T06:18:24;9.23;;;7.88;;
78324;SDS011;67584;51.400;6.692;2023-06-22T06:20:50;11.63;;;7.97;;
78324;SDS011;67584;51.400;6.692;2023-06-22T06:23:16;10.70;;;9.45;;
78324;SDS011;67584;51.400;6.692;2023-06-22T06:25:41;14.25;;;8.88;;
78324;SDS011;67584;51.400;6.692;2023-06-22T06:28:07;14.30;;;10.40;;
78324;SDS011;67584;51.400;6.692;2023-06-22T06:30:33;13.32;;;8.48;;
78324;SDS011;67584;51.400;6.692;2023-06-22T06:32:59;15.05;;;10.77;;
78324;SDS011;67584;51.400;6.692;2023-06-22T06:35:25;12.45;;;8.82;;
78324;SDS011;67584;51.400;6.692;2023-06-22T06:37:51;12.18;;;9.10;;
78324;SDS011;67584;51.400;6.692;2023-06-22T06:40:17;14.30;;;8.57;;
78324;SDS011;67584;51.400;6.692;2023-06-22T06:42:44;13.27;;;9.93;;
78324;SDS011;67584;51.400;6.692;2023-06-22T06:45:12;11.05;;;8.38;;
78324;SDS011;67584;51.400;6.692;2023-06-22T06:47:41;12.40;;;8.93;;
78324;SDS011;67584;51.400;6.692;2023-06-22T06:50:07;13.60;;;9.02;;
78324;SDS011;67584;51.400;6.692;2023-06-22T06:52:33;13.27;;;8.07;;
78324;SDS011;67584;51.400;6.692;2023-06-22T06:54:59;13.48;;;8.23;;
78324;SDS011;67584;51.400;6.692;2023-06-22T06:57:25;11.32;;;8.70;;
78324;SDS011;67584;51.400;6.692;2023-06-22T06:59:55;13.10;;;8.40;;
78324;SDS011;67584;51.400;6.692;2023-06-22T07:02:21;11.13;;;7.82;;
78324;SDS011;67584;51.400;6.692;2023-06-22T07:04:48;10.70;;;9.18;;
78324;SDS011;67584;51.400;6.692;2023-06-22T07:07:13;13.75;;;9.85;;
78324;SDS011;67584;51.400;6.692;2023-06-22T07:09:39;12.05;;;9.13;;
78324;SDS011;67584;51.400;6.692;2023-06-22T07:12:05;13.77;;;8.32;;
78324;SDS011;67584;51.400;6.692;2023-06-22T07:14:31;15.93;;;8.48;;
78324;SDS011;67584;51.400;6.692;2023-06-22T07:16:58;13.50;;;8.57;;
78324;SDS011;67584;51.400;6.692;2023-06-22T07:19:24;12.73;;;8.43;;
78324;SDS011;67584;51.400;6.692;2023-06-22T07:21:51;13.10;;;7.63;;
78324;SDS011;67584;51.400;6.692;2023-06-22T07:24:18;11.48;;;9.52;;
78324;SDS011;67584;51.400;6.692;2023-06-22T07:26:45;11.43;;;8.55;;
78324;SDS011;67584;51.400;6.692;2023-06-22T07:29:16;14.70;;;9.07;;
78324;SDS011;67584;51.400;6.692;2023-06-22T07:31:42;16.90;;;11.23;;
78324;SDS011;67584;51.400;6.692;2023-06-22T07:34:08;13.75;;;11.70;;
78324;SDS011;67584;51.400;6.692;2023-06-22T07:36:34;10.93;;;8.82;;
78324;SDS011;67584;51.400;6.692;2023-06-22T07:39:01;13.82;;;12.52;;
78324;SDS011;67584;51.400;6.692;2023-06-22T07:41:28;16.42;;;14.77;;
78324;SDS011;67584;51.400;6.692;2023-06-22T07:43:54;18.08;;;15.52;;
78324;SDS011;67584;51.400;6.692;2023-06-22T07:46:19;14.60;;;12.95;;
78324;SDS011;67584;51.400;6.692;2023-06-22T07:48:45;19.35;;;14.30;;
78324;SDS011;67584;51.400;6.692;2023-06-22T07:51:11;13.45;;;12.05;;
78324;SDS011;67584;51.400;6.692;2023-06-22T07:53:40;17.10;;;15.35;;
78324;SDS011;67584;51.400;6.692;2023-06-22T07:56:06;16.73;;;13.73;;
78324;SDS011;67584;51.400;6.692;2023-06-22T07:58:34;13.80;;;11.77;;
78324;SDS011;67584;51.400;6.692;2023-06-22T08:01:00;14.20;;;11.52;;
78324;SDS011;67584;51.400;6.692;2023-06-22T08:03:26;13.35;;;12.05;;
78324;SDS011;67584;51.400;6.692;2023-06-22T08:05:52;16.88;;;14.75;;
78324;SDS011;67584;51.400;6.692;2023-06-22T08:08:17;13.70;;;12.30;;
78324;SDS011;67584;51.400;6.692;2023-06-22T08:10:43;15.57;;;13.93;;
78324;SDS011;67584;51.400;6.692;2023-06-22T08:13:09;17.20;;;13.98;;
78324;SDS011;67584;51.400;6.692;2023-06-22T08:15:35;17.40;;;13.50;;
78324;SDS011;67584;51.400;6.692;2023-06-22T08:18:01;16.10;;;12.68;;
78324;SDS011;67584;51.400;6.692;2023-06-22T08:20:27;14.18;;;10.45;;
78324;SDS011;67584;51.400;6.692;2023-06-22T08:22:53;14.77;;;11.57;;
78324;SDS011;67584;51.400;6.692;2023-06-22T08:25:20;13.68;;;11.48;;
78324;SDS011;67584;51.400;6.692;2023-06-22T08:27:46;13.93;;;10.45;;
78324;SDS011;67584;51.400;6.692;2023-06-22T08:30:13;14.73;;;13.20;;
78324;SDS011;67584;51.400;6.692;2023-06-22T08:32:42;13.50;;;10.90;;
78324;SDS011;67584;51.400;6.692;2023-06-22T08:35:07;18.05;;;13.23;;
78324;SDS011;67584;51.400;6.692;2023-06-22T08:37:34;16.33;;;12.52;;
78324;SDS011;67584;51.400;6.692;2023-06-22T08:40:02;17.52;;;15.55;;
78324;SDS011;67584;51.400;6.692;2023-06-22T08:42:39;16.92;;;14.52;;
78324;SDS011;67584;51.400;6.692;2023-06-22T08:45:05;15.45;;;13.27;;
78324;SDS011;67584;51.400;6.692;2023-06-22T08:47:31;27.95;;;15.07;;
78324;SDS011;67584;51.400;6.692;2023-06-22T08:49:57;18.13;;;13.48;;
78324;SDS011;67584;51.400;6.692;2023-06-22T08:52:23;15.02;;;13.35;;
78324;SDS011;67584;51.400;6.692;2023-06-22T08:54:49;16.52;;;14.07;;
78324;SDS011;67584;51.400;6.692;2023-06-22T08:57:15;15.68;;;12.93;;
78324;SDS011;67584;51.400;6.692;2023-06-22T08:59:41;18.10;;;14.30;;
78324;SDS011;67584;51.400;6.692;2023-06-22T09:02:07;19.75;;;15.70;;
78324;SDS011;67584;51.400;6.692;2023-06-22T09:04:33;16.35;;;12.10;;
78324;SDS011;67584;51.400;6.692;2023-06-22T09:07:02;20.83;;;18.70;;
78324;SDS011;67584;51.400;6.692;2023-06-22T09:09:29;17.60;;;15.13;;
78324;SDS011;67584;51.400;6.692;2023-06-22T09:11:54;15.10;;;12.50;;
78324;SDS011;67584;51.400;6.692;2023-06-22T09:14:20;19.05;;;16.77;;
78324;SDS011;67584;51.400;6.692;2023-06-22T09:16:46;17.15;;;15.10;;
78324;SDS011;67584;51.400;6.692;2023-06-22T09:19:11;15.48;;;12.88;;
78324;SDS011;67584;51.400;6.692;2023-06-22T09:21:37;15.40;;;12.90;;
78324;SDS011;67584;51.400;6.692;2023-06-22T09:24:03;15.75;;;13.32;;
78324;SDS011;67584;51.400;6.692;2023-06-22T09:26:29;15.02;;;13.40;;
78324;SDS011;67584;51.400;6.692;2023-06-22T09:28:55;15.98;;;12.45;;
78324;SDS011;67584;51.400;6.692;2023-06-22T09:31:20;13.88;;;12.07;;
78324;SDS011;67584;51.400;6.692;2023-06-22T09:33:54;17.00;;;14.65;;
78324;SDS011;67584;51.400;6.692;2023-06-22T09:36:20;16.00;;;12.15;;
78324;SDS011;67584;51.400;6.692;2023-06-22T09:38:47;11.95;;;10.35;;
78324;SDS011;67584;51.400;6.692;2023-06-22T09:41:13;13.38;;;11.95;;
78324;SDS011;67584;51.400;6.692;2023-06-22T09:43:39;17.60;;;15.63;;
78324;SDS011;67584;51.400;6.692;2023-06-22T09:46:05;17.08;;;14.63;;
78324;SDS011;67584;51.400;6.692;2023-06-22T09:48:32;17.05;;;14.40;;
78324;SDS011;67584;51.400;6.692;2023-06-22T09:50:57;16.13;;;14.55;;
78324;SDS011;67584;51.400;6.692;2023-06-22T09:53:23;15.00;;;13.55;;
78324;SDS011;67584;51.400;6.692;2023-06-22T09:55:49;15.00;;;12.77;;
78324;SDS011;67584;51.400;6.692;2023-06-22T09:58:14;15.65;;;13.65;;
78324;SDS011;67584;51.400;6.692;2023-06-22T10:00:40;18.25;;;16.48;;
78324;SDS011;67584;51.400;6.692;2023-06-22T10:03:06;16.52;;;14.88;;
78324;SDS011;67584;51.400;6.692;2023-06-22T10:05:32;14.40;;;13.00;;
78324;SDS011;67584;51.400;6.692;2023-06-22T10:07:58;16.45;;;14.85;;
78324;SDS011;67584;51.400;6.692;2023-06-22T10:10:24;17.23;;;15.38;;
78324;SDS011;67584;51.400;6.692;2023-06-22T10:12:56;16.27;;;14.57;;
78324;SDS011;67584;51.400;6.692;2023-06-22T10:15:27;15.90;;;14.20;;
78324;SDS011;67584;51.400;6.692;2023-06-22T10:17:53;16.23;;;14.63;;
78324;SDS011;67584;51.400;6.692;2023-06-22T10:20:18;14.85;;;12.75;;
78324;SDS011;67584;51.400;6.692;2023-06-22T10:22:45;12.88;;;10.88;;
78324;SDS011;67584;51.400;6.692;2023-06-22T10:25:11;16.65;;;14.95;;
78324;SDS011;67584;51.400;6.692;2023-06-22T10:27:38;16.15;;;13.80;;
78324;SDS011;67584;51.400;6.692;2023-06-22T10:30:07;15.77;;;13.45;;
78324;SDS011;67584;51.400;6.692;2023-06-22T10:32:34;17.40;;;15.25;;
78324;SDS011;67584;51.400;6.692;2023-06-22T10:35:00;15.95;;;14.43;;
78324;SDS011;67584;51.400;6.692;2023-06-22T10:37:25;17.15;;;15.30;;
78324;SDS011;67584;51.400;6.692;2023-06-22T10:39:51;16.92;;;15.25;;
78324;SDS011;67584;51.400;6.692;2023-06-22T10:42:16;16.75;;;15.10;;
78324;SDS011;67584;51.400;6.692;2023-06-22T10:44:42;17.63;;;15.85;;
78324;SDS011;67584;51.400;6.692;2023-06-22T10:47:09;17.60;;;13.80;;
78324;SDS011;67584;51.400;6.692;2023-06-22T10:49:37;17.73;;;15.65;;
78324;SDS011;67584;51.400;6.692;2023-06-22T10:52:03;18.42;;;16.20;;
78324;SDS011;67584;51.400;6.692;2023-06-22T10:54:32;21.65;;;19.35;;
78324;SDS011;67584;51.400;6.692;2023-06-22T10:56:58;16.05;;;14.30;;
78324;SDS011;67584;51.400;6.692;2023-06-22T10:59:24;21.58;;;18.13;;
78324;SDS011;67584;51.400;6.692;2023-06-22T11:01:51;16.00;;;14.05;;
78324;SDS011;67584;51.400;6.692;2023-06-22T11:04:17;15.40;;;13.73;;
78324;SDS011;67584;51.400;6.692;2023-06-22T11:06:43;14.85;;;12.57;;
78324;SDS011;67584;51.400;6.692;2023-06-22T11:09:09;16.10;;;14.45;;
78324;SDS011;67584;51.400;6.692;2023-06-22T11:11:34;17.30;;;14.65;;
78324;SDS011;67584;51.400;6.692;2023-06-22T11:14:00;17.83;;;16.00;;
78324;SDS011;67584;51.400;6.692;2023-06-22T11:16:25;15.70;;;13.98;;
78324;SDS011;67584;51.400;6.692;2023-06-22T11:18:52;16.77;;;14.48;;
78324;SDS011;67584;51.400;6.692;2023-06-22T11:21:17;14.98;;;13.27;;
78324;SDS011;67584;51.400;6.692;2023-06-22T11:23:43;17.10;;;15.40;;
78324;SDS011;67584;51.400;6.692;2023-06-22T11:26:08;20.33;;;16.98;;
78324;SDS011;67584;51.400;6.692;2023-06-22T11:28:34;19.40;;;17.40;;
78324;SDS011;67584;51.400;6.692;2023-06-22T11:31:00;21.67;;;17.85;;
78324;SDS011;67584;51.400;6.692;2023-06-22T11:33:25;23.45;;;21.08;;
78324;SDS011;67584;51.400;6.692;2023-06-22T11:35:51;25.83;;;19.85;;
78324;SDS011;67584;51.400;6.692;2023-06-22T11:38:17;23.30;;;19.23;;
78324;SDS011;67584;51.400;6.692;2023-06-22T11:40:42;25.27;;;20.65;;
78324;SDS011;67584;51.400;6.692;2023-06-22T11:43:08;27.10;;;20.55;;
78324;SDS011;67584;51.400;6.692;2023-06-22T11:45:33;26.98;;;20.90;;
78324;SDS011;67584;51.400;6.692;2023-06-22T11:47:59;30.73;;;23.27;;
78324;SDS011;67584;51.400;6.692;2023-06-22T11:50:25;29.45;;;21.65;;
78324;SDS011;67584;51.400;6.692;2023-06-22T11:52:50;33.05;;;23.52;;
78324;SDS011;67584;51.400;6.692;2023-06-22T11:55:18;31.50;;;23.50;;
78324;SDS011;67584;51.400;6.692;2023-06-22T11:57:56;35.17;;;24.42;;
78324;SDS011;67584;51.400;6.692;2023-06-22T12:00:25;31.27;;;24.42;;
78324;SDS011;67584;51.400;6.692;2023-06-22T12:02:51;32.97;;;25.70;;
78324;SDS011;67584;51.400;6.692;2023-06-22T12:05:17;29.48;;;23.77;;
78324;SDS011;67584;51.400;6.692;2023-06-22T12:07:47;32.70;;;24.92;;
78324;SDS011;67584;51.400;6.692;2023-06-22T12:10:13;32.28;;;24.92;;
78324;SDS011;67584;51.400;6.692;2023-06-22T12:12:39;36.25;;;25.55;;
78324;SDS011;67584;51.400;6.692;2023-06-22T12:15:05;32.65;;;25.17;;
78324;SDS011;67584;51.400;6.692;2023-06-22T12:17:34;32.67;;;25.25;;
78324;SDS011;67584;51.400;6.692;2023-06-22T12:20:00;32.83;;;23.92;;
78324;SDS011;67584;51.400;6.692;2023-06-22T12:22:26;35.90;;;26.77;;
78324;SDS011;67584;51.400;6.692;2023-06-22T12:24:52;29.73;;;24.27;;
78324;SDS011;67584;51.400;6.692;2023-06-22T12:27:17;29.10;;;22.85;;
78324;SDS011;67584;51.400;6.692;2023-06-22T12:29:45;27.98;;;22.48;;
78324;SDS011;67584;51.400;6.692;2023-06-22T12:32:11;26.83;;;22.23;;
78324;SDS011;67584;51.400;6.692;2023-06-22T12:34:39;27.10;;;22.58;;
78324;SDS011;67584;51.400;6.692;2023-06-22T12:37:05;28.48;;;22.65;;
78324;SDS011;67584;51.400;6.692;2023-06-22T12:39:31;24.95;;;21.73;;
78324;SDS011;67584;51.400;6.692;2023-06-22T12:41:57;25.98;;;21.45;;
78324;SDS011;67584;51.400;6.692;2023-06-22T12:44:23;26.50;;;21.90;;
78324;SDS011;67584;51.400;6.692;2023-06-22T12:46:49;25.30;;;20.63;;
78324;SDS011;67584;51.400;6.692;2023-06-22T12:49:14;25.88;;;20.83;;
78324;SDS011;67584;51.400;6.692;2023-06-22T12:51:41;24.90;;;20.88;;
78324;SDS011;67584;51.400;6.692;2023-06-22T12:54:07;24.52;;;21.38;;
78324;SDS011;67584;51.400;6.692;2023-06-22T12:56:33;26.63;;;22.20;;
78324;SDS011;67584;51.400;6.692;2023-06-22T12:58:59;25.63;;;21.48;;
78324;SDS011;67584;51.400;6.692;2023-06-22T13:01:28;24.90;;;21.77;;
78324;SDS011;67584;51.400;6.692;2023-06-22T13:03:55;24.25;;;21.20;;
78324;SDS011;67584;51.400;6.692;2023-06-22T13:06:21;26.15;;;22.63;;
78324;SDS011;67584;51.400;6.692;2023-06-22T13:08:47;26.35;;;22.77;;
78324;SDS011;67584;51.400;6.692;2023-06-22T13:11:12;28.20;;;23.67;;
78324;SDS011;67584;51.400;6.692;2023-06-22T13:13:38;30.85;;;24.38;;
78324;SDS011;67584;51.400;6.692;2023-06-22T13:16:04;27.75;;;22.50;;
78324;SDS011;67584;51.400;6.692;2023-06-22T13:18:30;28.92;;;22.83;;
78324;SDS011;67584;51.400;6.692;2023-06-22T13:20:56;28.75;;;23.70;;
78324;SDS011;67584;51.400;6.692;2023-06-22T13:23:23;28.50;;;24.08;;
78324;SDS011;67584;51.400;6.692;2023-06-22T13:25:49;30.40;;;25.08;;
78324;SDS011;67584;51.400;6.692;2023-06-22T13:28:14;30.77;;;22.50;;
78324;SDS011;67584;51.400;6.692;2023-06-22T13:30:41;28.75;;;23.83;;
78324;SDS011;67584;51.400;6.692;2023-06-22T13:33:07;26.70;;;23.63;;
78324;SDS011;67584;51.400;6.692;2023-06-22T13:35:33;45.40;;;33.50;;
78324;SDS011;67584;51.400;6.692;2023-06-22T13:38:00;31.73;;;25.98;;
78324;SDS011;67584;51.400;6.692;2023-06-22T13:40:26;30.92;;;26.33;;
78324;SDS011;67584;51.400;6.692;2023-06-22T13:42:52;26.00;;;23.00;;
78324;SDS011;67584;51.400;6.692;2023-06-22T13:45:17;28.42;;;23.50;;
78324;SDS011;67584;51.400;6.692;2023-06-22T13:47:45;31.15;;;24.20;;
78324;SDS011;67584;51.400;6.692;2023-06-22T13:50:10;33.00;;;24.95;;
78324;SDS011;67584;51.400;6.692;2023-06-22T13:52:38;24.73;;;21.90;;
78324;SDS011;67584;51.400;6.692;2023-06-22T13:55:04;29.60;;;25.02;;
78324;SDS011;67584;51.400;6.692;2023-06-22T13:57:30;29.17;;;24.42;;
78324;SDS011;67584;51.400;6.692;2023-06-22T13:59:56;25.10;;;22.25;;
78324;SDS011;67584;51.400;6.692;2023-06-22T14:02:22;25.23;;;22.13;;
78324;SDS011;67584;51.400;6.692;2023-06-22T14:04:47;27.67;;;22.70;;
78324;SDS011;67584;51.400;6.692;2023-06-22T14:07:13;25.80;;;21.75;;
78324;SDS011;67584;51.400;6.692;2023-06-22T14:09:38;24.77;;;22.20;;
78324;SDS011;67584;51.400;6.692;2023-06-22T14:12:04;25.52;;;22.83;;
78324;SDS011;67584;51.400;6.692;2023-06-22T14:14:34;25.83;;;20.67;;
78324;SDS011;67584;51.400;6.692;2023-06-22T14:17:00;24.48;;;21.48;;
78324;SDS011;67584;51.400;6.692;2023-06-22T14:19:26;25.23;;;21.88;;
78324;SDS011;67584;51.400;6.692;2023-06-22T14:21:51;26.38;;;22.80;;
78324;SDS011;67584;51.400;6.692;2023-06-22T14:24:17;25.92;;;23.13;;
78324;SDS011;67584;51.400;6.692;2023-06-22T14:26:42;25.63;;;22.88;;
78324;SDS011;67584;51.400;6.692;2023-06-22T14:29:08;26.13;;;23.30;;
78324;SDS011;67584;51.400;6.692;2023-06-22T14:31:34;26.23;;;23.10;;
78324;SDS011;67584;51.400;6.692;2023-06-22T14:34:00;26.23;;;21.60;;
78324;SDS011;67584;51.400;6.692;2023-06-22T14:36:28;26.10;;;23.20;;
78324;SDS011;67584;51.400;6.692;2023-06-22T14:38:54;23.55;;;19.88;;
78324;SDS011;67584;51.400;6.692;2023-06-22T14:41:19;26.83;;;22.90;;